Impacts METAR Board
IDs:

KBWI - Baltimore-Washington, MD, US

Updated at: 1500 UTC 20 Aug 2019
Potential Impact None Slight Moderate High
Time 20/03Z 20/04Z 20/05Z 20/06Z 20/07Z 20/08Z 20/09Z 20/10Z 20/11Z 20/12Z 20/13Z 20/14Z 20/15Z
Temp81 82 82 81 78 79 77 76 78 82 87 89 91
Dewpt72 72 72 72 72 73 72 72 71 71 70 69 67
Altim30.02 30.03 30.02 30.01 30.02 30.03 30.04 30.05 30.06 30.08 30.08 30.09 30.09
VIS10 10 10 10 10 10 10 10 10 10 10 10 10
CIG250 95 170 170 250 250 250 250 160 -- -- -- --
CoverBKNOVCOVCOVCOVCBKNBKNBKNBKNSCTSCTSCTSCT
FltCatVFRVFRVFRVFRVFRVFRVFRVFRVFRVFRVFRVFRVFR
WX--------------------------
WDir27025027034026022029000305090110
WSpd3 4 3 6 3 4 3 0 0 3 5 8 8
WGst-- -- -- -- -- -- -- -- -- -- -- -- --
Raw hourly METARs
KBWI 200254Z 27003KT 10SM FEW055 SCT140 BKN250 27/22 A3002 RMK AO2 SLP163 FRQ LTGICCC DSNT SW CB DSNT SW MOV E T02720222 51013
KBWI 200354Z 25004KT 10SM SCT070 BKN095 BKN140 OVC250 28/22 A3003 RMK AO2 SLP167 T02780222
KBWI 200454Z 27003KT 10SM SCT100 BKN170 OVC250 28/22 A3002 RMK AO2 SLP164 T02780222 403720211
KBWI 200554Z 34006KT 10SM FEW065 SCT100 BKN170 OVC250 27/22 A3001 RMK AO2 SLP162 T02720222 10328 20261 58001
KBWI 200654Z 26003KT 10SM SCT170 OVC250 26/22 A3002 RMK AO2 SLP163 T02560222
KBWI 200754Z 22004KT 10SM FEW170 BKN250 26/23 A3003 RMK AO2 SLP168 T02610228
KBWI 200854Z 29003KT 10SM BKN250 25/22 A3004 RMK AO2 SLP170 T02500222 53008
KBWI 200954Z 00000KT 10SM SCT160 BKN250 24/22 A3005 RMK AO2 SLP174 T02440222
KBWI 201054Z 00000KT 10SM FEW090 BKN160 BKN250 26/22 A3006 RMK AO2 SLP179 T02560217
KBWI 201154Z 03003KT 10SM FEW160 SCT300 28/22 A3008 RMK AO2 SLP185 T02780217 10278 20239 53014
KBWI 201254Z 05005KT 10SM FEW080 SCT300 31/21 A3008 RMK AO2 SLP186 T03060211
KBWI 201354Z 09008KT 10SM SCT300 32/21 A3009 RMK AO2 SLP187 T03170206
KBWI 201454Z 11008KT 10SM SCT300 33/19 A3009 RMK AO2 SLP189 T03280194 53004



Page loaded:  15:53 UTC  |   08:53 AM Pacific  |   09:53 AM Mountain  |   10:53 AM Central  |   11:53 AM Eastern

 

ADVISORIES

FORECASTS

FORECASTS

OBSERVATIONS

USER TOOLS

ABOUT US